createdAt,value
2018-07-23T00:07:58.885Z,12.87
2018-07-23T00:18:00.896Z,15.87
2018-07-23T00:28:02.147Z,14.07
2018-07-23T00:38:03.393Z,19.33
2018-07-23T00:48:04.658Z,16.57
2018-07-23T00:58:06.686Z,15.40
2018-07-23T01:08:07.936Z,16.80
2018-07-23T01:18:09.171Z,16.17
2018-07-23T01:28:11.174Z,16.80
2018-07-23T01:38:13.174Z,19.50
2018-07-23T01:48:14.412Z,17.47
2018-07-23T02:08:22.794Z,20.50
2018-07-23T02:18:24.827Z,19.47
2018-07-23T02:28:26.877Z,18.97
2018-07-23T02:38:28.124Z,19.97
2018-07-23T02:48:29.386Z,19.10
2018-07-23T02:58:30.659Z,21.33
2018-07-23T03:08:31.934Z,20.47
2018-07-23T03:18:33.227Z,19.43
2018-07-23T03:28:34.509Z,24.37
2018-07-23T03:38:36.528Z,22.07
2018-07-23T03:48:38.542Z,21.93
2018-07-23T03:58:40.569Z,18.37
2018-07-23T04:08:41.821Z,19.30
2018-07-23T04:18:43.058Z,20.23
2018-07-23T04:28:44.323Z,24.03
2018-07-23T04:38:45.575Z,20.83
2018-07-23T04:48:46.830Z,19.53
2018-07-23T04:58:48.075Z,18.70
2018-07-23T05:08:55.112Z,17.03
2018-07-23T05:18:56.363Z,17.70
2018-07-23T05:28:57.657Z,17.07
2018-07-23T05:38:58.909Z,19.10
2018-07-23T05:49:00.178Z,19.83
2018-07-23T05:59:01.538Z,19.53
2018-07-23T06:09:02.804Z,17.80
2018-07-23T06:19:04.078Z,20.10
2018-07-23T06:29:05.358Z,15.57
2018-07-23T06:39:06.660Z,16.27
2018-07-23T06:49:07.952Z,14.87
2018-07-23T06:59:11.332Z,14.57
2018-07-23T07:09:12.616Z,15.77
2018-07-23T07:19:13.905Z,13.37
2018-07-23T07:29:15.173Z,14.33
2018-07-23T07:39:16.437Z,14.77
2018-07-23T07:49:18.466Z,12.17
2018-07-23T07:59:20.845Z,15.27
2018-07-23T08:09:22.113Z,15.13
2018-07-23T08:19:23.392Z,12.33
2018-07-23T08:29:24.658Z,13.17
2018-07-23T08:39:26.742Z,9.00
2018-07-23T08:49:28.842Z,7.50
2018-07-23T08:59:30.097Z,9.33
2018-07-23T09:09:31.389Z,7.17
2018-07-23T09:19:32.707Z,8.17
2018-07-23T09:29:34.002Z,7.43
2018-07-23T09:39:38.420Z,7.33
2018-07-23T09:49:39.699Z,7.60
2018-07-23T09:59:40.970Z,8.63
2018-07-23T10:09:42.256Z,8.57
2018-07-23T10:19:43.562Z,7.83
2018-07-23T10:29:47.959Z,8.07
2018-07-23T10:39:49.226Z,8.20
2018-07-23T10:49:50.506Z,10.97
2018-07-23T10:59:51.772Z,9.10
2018-07-23T11:09:53.817Z,8.53
2018-07-23T11:19:55.094Z,8.20
2018-07-23T11:29:57.122Z,7.47
2018-07-23T11:40:04.406Z,9.07
2018-07-23T11:50:05.665Z,9.23
2018-07-23T12:00:06.939Z,8.10
2018-07-23T12:10:08.966Z,7.73
2018-07-23T12:20:10.232Z,9.00
2018-07-23T12:30:11.510Z,7.40
2018-07-23T12:40:12.791Z,8.07
2018-07-23T12:50:14.074Z,8.77
2018-07-23T13:00:16.110Z,8.17
2018-07-23T13:10:17.382Z,7.20
2018-07-23T13:20:19.437Z,9.87
2018-07-23T13:30:20.739Z,8.80
2018-07-23T13:40:22.204Z,7.87
2018-07-23T13:50:23.495Z,10.33
2018-07-23T14:00:25.541Z,9.37
2018-07-23T14:10:26.828Z,10.73
2018-07-23T14:20:28.159Z,10.60
2018-07-23T14:30:29.429Z,11.73
2018-07-23T14:40:30.693Z,9.03
2018-07-23T14:50:32.731Z,11.13
2018-07-23T15:00:34.081Z,9.77
2018-07-23T15:10:35.325Z,12.70
2018-07-23T15:20:37.343Z,9.10
2018-07-23T15:40:46.175Z,11.97
2018-07-23T15:50:47.432Z,9.37
2018-07-23T16:00:48.754Z,12.20
2018-07-23T16:10:50.064Z,12.30
2018-07-23T16:20:52.085Z,12.50
2018-07-23T16:30:54.534Z,9.33
2018-07-23T16:40:55.786Z,11.27
2018-07-23T16:50:57.047Z,10.13
2018-07-23T17:00:58.307Z,10.13
2018-07-23T17:10:59.585Z,11.07
2018-07-23T17:21:05.252Z,11.60
2018-07-23T17:41:14.316Z,11.13
2018-07-23T17:51:15.585Z,11.40
2018-07-23T18:01:17.616Z,13.57
2018-07-23T18:11:18.974Z,13.67
2018-07-23T18:21:20.190Z,11.87
2018-07-23T18:31:22.241Z,12.33
2018-07-23T18:41:23.542Z,13.63
2018-07-23T18:51:24.825Z,16.33
2018-07-23T19:01:26.138Z,17.77
2018-07-23T19:11:27.422Z,14.87
2018-07-23T19:31:35.870Z,14.97
2018-07-23T20:01:50.204Z,16.13
2018-07-23T20:21:58.811Z,13.57
2018-07-23T20:32:00.129Z,15.23
2018-07-23T20:42:01.806Z,13.70
2018-07-23T20:52:03.071Z,17.67
2018-07-23T21:12:12.718Z,16.60
2018-07-23T21:22:14.788Z,18.67
2018-07-23T21:32:16.102Z,17.83
2018-07-23T21:42:17.339Z,16.00
2018-07-23T21:52:18.609Z,14.60
2018-07-23T22:02:19.879Z,15.40
2018-07-23T22:12:21.150Z,14.70
2018-07-23T22:22:22.430Z,15.40
2018-07-23T22:32:23.698Z,15.20
2018-07-23T22:42:24.988Z,15.47
2018-07-23T22:52:26.266Z,15.80
2018-07-23T23:12:34.120Z,15.23
2018-07-23T23:22:35.384Z,17.13
2018-07-23T23:32:36.673Z,15.97
2018-07-23T23:42:38.132Z,15.47
2018-07-23T23:52:39.411Z,15.80
